Time;durP1;ratioP1;P1;durP2;ratioP2;P2;SDS_P1;SDS_P2;PMS_P1;PMS_P2;Temp;Humidity;BMP_temperature;BMP_pressure;BME280_temperature;BME280_humidity;BME280_pressure;Samples;Min_cycle;Max_cycle;Signal;HPM_P1;HPM_P2
2022/05/20 00:01:51;;;;;;;12.75;7.50;;;13.40;99.90;;;;;;4985798;28;20052;-77
2022/05/20 00:04:16;;;;;;;12.68;7.78;;;13.40;99.90;;;;;;4986899;28;20050;-76
2022/05/20 00:06:42;;;;;;;9.27;7.63;;;13.40;99.90;;;;;;4987009;28;20391;-76
2022/05/20 00:09:09;;;;;;;12.65;7.50;;;13.30;99.90;;;;;;4985651;28;20046;-76
2022/05/20 00:11:35;;;;;;;10.27;6.93;;;13.40;99.90;;;;;;4986988;28;20038;-77
2022/05/20 00:14:01;;;;;;;20.67;8.63;;;13.40;99.90;;;;;;4985038;28;20500;-76
2022/05/20 00:16:29;;;;;;;16.00;9.15;;;13.30;99.90;;;;;;4985611;28;20057;-77
2022/05/20 00:18:55;;;;;;;13.25;7.63;;;13.40;99.90;;;;;;4986587;28;20053;-76
2022/05/20 00:21:21;;;;;;;10.80;7.78;;;13.30;99.90;;;;;;4985230;28;20476;-75
2022/05/20 00:23:47;;;;;;;11.15;8.23;;;13.40;99.90;;;;;;4985338;28;20074;-77
2022/05/20 00:26:12;;;;;;;15.93;8.35;;;13.30;99.90;;;;;;4986265;28;20050;-77
2022/05/20 00:28:38;;;;;;;12.80;8.15;;;13.30;99.90;;;;;;4986462;28;20034;-78
2022/05/20 00:31:09;;;;;;;10.20;7.25;;;13.20;99.90;;;;;;4985713;28;20565;-77
2022/05/20 00:33:37;;;;;;;13.30;9.32;;;13.20;99.90;;;;;;4986761;28;20133;-78
2022/05/20 00:36:04;;;;;;;19.60;8.70;;;13.20;99.90;;;;;;4986217;28;20082;-75
2022/05/20 00:38:30;;;;;;;20.80;9.68;;;13.20;99.90;;;;;;5001553;28;20085;-75
2022/05/20 00:40:57;;;;;;;9.90;8.05;;;13.20;99.90;;;;;;4986539;28;20049;-75
2022/05/20 00:43:29;;;;;;;13.88;9.10;;;13.20;99.90;;;;;;4984646;28;20050;-76
2022/05/20 00:45:58;;;;;;;11.52;8.45;;;13.20;99.90;;;;;;4985390;28;20042;-76
2022/05/20 00:48:24;;;;;;;14.23;9.77;;;13.20;99.90;;;;;;4985904;28;20374;-76
2022/05/20 00:51:17;;;;;;;14.48;10.38;;;13.20;99.90;;;;;;4986443;28;20046;-76
2022/05/20 00:53:56;;;;;;;10.05;8.98;;;13.10;99.90;;;;;;4969166;28;20426;-76
2022/05/20 00:56:28;;;;;;;13.15;10.68;;;13.10;99.90;;;;;;4986060;28;20112;-76
2022/05/20 00:58:55;;;;;;;12.77;10.18;;;13.10;99.90;;;;;;4986308;28;20138;-76
2022/05/20 01:01:21;;;;;;;15.48;10.50;;;13.10;99.90;;;;;;4985090;28;20042;-76
2022/05/20 01:03:47;;;;;;;14.05;10.45;;;13.10;99.90;;;;;;4968460;28;20042;-76
2022/05/20 01:06:13;;;;;;;13.18;10.00;;;13.00;99.90;;;;;;4986748;28;20050;-75
2022/05/20 01:08:40;;;;;;;15.10;11.38;;;13.10;99.90;;;;;;4986383;28;20039;-76
2022/05/20 01:11:06;;;;;;;13.90;10.98;;;13.00;99.90;;;;;;4985954;28;20038;-75
2022/05/20 01:13:33;;;;;;;17.83;12.63;;;13.10;99.90;;;;;;4986342;28;20049;-76
2022/05/20 01:16:03;;;;;;;15.57;10.90;;;13.00;99.90;;;;;;4985088;28;20090;-76
2022/05/20 01:18:31;;;;;;;;;;;13.00;99.90;;;;;;4986456;28;20041;-76
2022/05/20 01:20:57;;;;;;;16.40;12.63;;;13.10;99.90;;;;;;4984772;28;20292;-77
2022/05/20 01:23:26;;;;;;;16.15;11.70;;;13.10;99.90;;;;;;4985950;28;20045;-77
2022/05/20 01:25:54;;;;;;;14.23;10.55;;;13.10;99.90;;;;;;4986061;28;20046;-77
2022/05/20 01:28:24;;;;;;;12.65;10.88;;;13.10;99.90;;;;;;4984400;28;20134;-77
2022/05/20 01:30:59;;;;;;;12.73;10.10;;;13.00;99.90;;;;;;4985135;28;20077;-78
2022/05/20 01:33:38;;;;;;;17.63;10.35;;;12.90;99.90;;;;;;4985763;28;20038;-77
2022/05/20 01:36:07;;;;;;;15.45;11.60;;;12.80;99.90;;;;;;4984527;28;20049;-75
2022/05/20 01:38:33;;;;;;;18.13;10.57;;;12.90;99.90;;;;;;4986196;28;20134;-76
2022/05/20 01:41:06;;;;;;;14.77;11.40;;;13.00;99.90;;;;;;4989643;28;20088;-76
2022/05/20 01:44:04;;;;;;;16.45;10.73;;;12.90;99.90;;;;;;4988328;28;20408;-77
2022/05/20 01:46:41;;;;;;;16.33;12.55;;;12.90;99.90;;;;;;4988507;28;20456;-77
2022/05/20 01:49:19;;;;;;;17.73;13.40;;;13.00;99.90;;;;;;4987972;28;20497;-77
2022/05/20 01:52:00;;;;;;;15.00;13.27;;;12.90;99.90;;;;;;4972320;28;20102;-77
2022/05/20 01:54:47;;;;;;;13.82;11.77;;;12.90;99.90;;;;;;4989109;28;20179;-76
2022/05/20 01:57:39;;;;;;;22.52;13.18;;;12.80;99.90;;;;;;4989607;28;20405;-75
2022/05/20 02:00:18;;;;;;;17.23;12.93;;;12.90;99.90;;;;;;4988218;28;20039;-77
2022/05/20 02:03:08;;;;;;;17.02;12.15;;;12.80;99.90;;;;;;4988029;28;20706;-77
2022/05/20 02:06:00;;;;;;;14.32;11.60;;;12.60;99.90;;;;;;4989910;28;20078;-78
2022/05/20 02:08:54;;;;;;;14.50;11.00;;;12.70;99.90;;;;;;4984253;28;20061;-77
2022/05/20 02:11:29;;;;;;;15.50;11.30;;;12.70;99.90;;;;;;4987821;28;20218;-77
2022/05/20 02:14:35;;;;;;;17.17;11.63;;;12.70;99.90;;;;;;4988753;28;20046;-77
2022/05/20 02:17:24;;;;;;;16.35;13.48;;;12.60;99.90;;;;;;4988333;28;20100;-77
2022/05/20 02:19:58;;;;;;;13.88;12.43;;;12.60;99.90;;;;;;4988790;28;20448;-77
2022/05/20 02:22:28;;;;;;;18.67;13.48;;;12.60;99.90;;;;;;4987497;28;20053;-77
2022/05/20 02:24:56;;;;;;;20.23;11.65;;;12.50;99.90;;;;;;4989132;28;20038;-78
2022/05/20 02:27:28;;;;;;;18.17;13.82;;;12.60;99.90;;;;;;4988349;28;20049;-77
2022/05/20 02:30:03;;;;;;;15.00;12.75;;;12.50;99.90;;;;;;4986330;28;20125;-77
2022/05/20 02:32:35;;;;;;;19.00;13.02;;;12.50;99.90;;;;;;4987476;28;20043;-77
2022/05/20 02:35:01;;;;;;;22.05;14.32;;;12.50;99.90;;;;;;4970850;28;20485;-77
2022/05/20 02:37:34;;;;;;;15.23;13.60;;;12.50;99.90;;;;;;4986868;28;20055;-77
2022/05/20 02:40:01;;;;;;;22.25;14.10;;;12.50;99.90;;;;;;4988483;28;20061;-77
2022/05/20 02:42:28;;;;;;;21.63;13.55;;;12.50;99.90;;;;;;4988262;28;20043;-78
2022/05/20 02:44:54;;;;;;;17.30;12.98;;;12.50;99.90;;;;;;4987236;28;20046;-77
2022/05/20 02:47:20;;;;;;;18.63;14.85;;;12.40;99.90;;;;;;4987774;28;20080;-77
2022/05/20 02:49:46;;;;;;;17.58;14.20;;;12.40;99.90;;;;;;4987901;28;20502;-77
2022/05/20 02:52:12;;;;;;;16.45;13.30;;;12.40;99.90;;;;;;4988783;28;20134;-77
2022/05/20 02:54:38;;;;;;;21.38;14.90;;;12.40;99.90;;;;;;4988360;28;20062;-77
2022/05/20 02:57:04;;;;;;;19.13;13.75;;;12.40;99.90;;;;;;4987968;28;20054;-77
2022/05/20 03:04:59;;;;;;;20.02;14.00;;;12.30;99.90;;;;;;4986713;28;20085;-77
2022/05/20 03:07:25;;;;;;;18.33;13.13;;;12.20;99.90;;;;;;4987819;28;20050;-75
2022/05/20 03:09:53;;;;;;;16.38;14.45;;;12.20;99.90;;;;;;4987784;28;20049;-76
2022/05/20 03:12:19;;;;;;;15.38;12.95;;;12.20;99.90;;;;;;4987890;28;20042;-75
2022/05/20 03:14:45;;;;;;;21.38;13.70;;;12.10;99.90;;;;;;4969745;28;20125;-75
2022/05/20 03:17:11;;;;;;;18.00;13.13;;;11.90;99.90;;;;;;4986221;28;20521;-75
2022/05/20 03:19:38;;;;;;;21.67;14.30;;;11.90;99.90;;;;;;4987887;28;20053;-75
2022/05/20 03:22:05;;;;;;;23.45;15.68;;;12.00;99.90;;;;;;4987370;28;20413;-75
2022/05/20 03:24:31;;;;;;;19.73;14.18;;;12.00;99.90;;;;;;4987572;28;20057;-75
2022/05/20 03:26:57;;;;;;;17.15;13.88;;;12.00;99.90;;;;;;4987668;28;20117;-76
2022/05/20 03:29:23;;;;;;;16.92;14.52;;;12.00;99.90;;;;;;4986662;28;20125;-76
2022/05/20 03:31:50;;;;;;;19.08;15.70;;;12.00;99.90;;;;;;4987581;28;20049;-76
2022/05/20 03:34:17;;;;;;;18.00;14.18;;;12.00;99.90;;;;;;4987575;28;20081;-76
2022/05/20 03:36:45;;;;;;;20.10;15.13;;;11.90;99.90;;;;;;4986409;28;20065;-76
2022/05/20 03:39:14;;;;;;;19.40;15.52;;;11.90;99.90;;;;;;4969439;28;20074;-76
2022/05/20 03:41:40;;;;;;;18.95;15.35;;;11.90;99.90;;;;;;4987063;28;20794;-76
2022/05/20 03:44:08;;;;;;;21.20;16.30;;;11.90;99.90;;;;;;4986902;28;20485;-76
2022/05/20 03:46:40;;;;;;;16.45;14.85;;;11.80;99.90;;;;;;4986446;28;20046;-75
2022/05/20 03:49:05;;;;;;;20.90;16.40;;;11.80;99.90;;;;;;4987057;28;20401;-75
2022/05/20 03:51:31;;;;;;;14.70;13.30;;;11.90;99.90;;;;;;4986894;28;20046;-76
2022/05/20 03:53:57;;;;;;;18.27;14.95;;;11.90;99.90;;;;;;4986786;28;20093;-76
2022/05/20 03:56:22;;;;;;;15.55;12.85;;;11.90;99.90;;;;;;4986549;28;20480;-77
2022/05/20 03:58:48;;;;;;;13.55;12.10;;;11.90;99.90;;;;;;4986819;28;20101;-77
2022/05/20 04:03:59;;;;;;;17.55;13.98;;;11.80;99.90;;;;;;4987179;28;20057;-75
2022/05/20 04:06:24;;;;;;;15.85;14.30;;;11.90;99.90;;;;;;4986426;28;20042;-76
2022/05/20 04:08:50;;;;;;;14.70;12.48;;;11.70;99.90;;;;;;4986820;28;20120;-75
2022/05/20 04:11:16;;;;;;;14.60;13.07;;;11.80;99.90;;;;;;4969598;28;20050;-76
2022/05/20 04:13:42;;;;;;;19.80;13.48;;;11.80;99.90;;;;;;4987043;28;20397;-76
2022/05/20 04:16:10;;;;;;;19.60;14.27;;;11.80;99.90;;;;;;4985390;28;20097;-76
2022/05/20 04:18:37;;;;;;;14.25;12.80;;;11.80;99.90;;;;;;4985534;28;20097;-76
2022/05/20 04:21:04;;;;;;;16.63;14.48;;;11.70;99.90;;;;;;4986091;28;20096;-75
2022/05/20 04:23:30;;;;;;;16.23;13.13;;;11.80;99.90;;;;;;4986474;28;20381;-76
2022/05/20 04:25:55;;;;;;;17.25;14.38;;;11.90;99.90;;;;;;4985214;28;20034;-77
2022/05/20 04:28:21;;;;;;;16.13;14.02;;;11.90;99.90;;;;;;4986383;28;20466;-77
2022/05/20 04:30:47;;;;;;;16.67;14.90;;;11.80;99.90;;;;;;4984071;28;20401;-77
2022/05/20 04:33:13;;;;;;;19.90;15.40;;;11.80;99.90;;;;;;4986542;28;20329;-76
2022/05/20 04:35:39;;;;;;;18.15;16.05;;;11.70;99.90;;;;;;4985232;28;20050;-76
2022/05/20 04:38:05;;;;;;;16.10;13.48;;;11.80;99.90;;;;;;4984960;28;20047;-76
2022/05/20 04:40:30;;;;;;;20.88;18.05;;;12.00;99.90;;;;;;4986429;28;20409;-77
2022/05/20 04:48:25;;;;;;;18.92;16.92;;;12.00;99.90;;;;;;4985788;28;20489;-75
2022/05/20 04:50:51;;;;;;;22.45;17.85;;;12.00;99.90;;;;;;4986339;28;20081;-75
2022/05/20 04:56:01;;;;;;;20.70;18.05;;;12.10;99.90;;;;;;4986343;28;20057;-75
2022/05/20 04:58:26;;;;;;;19.95;17.30;;;12.10;99.90;;;;;;4985751;28;20046;-75
2022/05/20 05:00:55;;;;;;;22.27;17.35;;;12.10;99.90;;;;;;4983620;28;20134;-75
2022/05/20 05:03:20;;;;;;;20.73;17.70;;;12.30;99.90;;;;;;4985804;28;20049;-75
2022/05/20 05:05:46;;;;;;;20.25;18.17;;;12.30;99.90;;;;;;4986576;28;20417;-75
2022/05/20 05:08:16;;;;;;;18.55;16.73;;;12.30;99.90;;;;;;4986434;28;20046;-76
2022/05/20 05:10:43;;;;;;;27.75;18.25;;;12.40;99.90;;;;;;4986309;28;20093;-76
2022/05/20 05:13:09;;;;;;;23.60;18.52;;;12.30;99.90;;;;;;4985487;28;20121;-76
2022/05/20 05:15:36;;;;;;;17.55;15.73;;;12.40;99.90;;;;;;4989087;28;20088;-76
2022/05/20 05:18:14;;;;;;;22.63;17.95;;;12.40;99.90;;;;;;4989873;28;20093;-76
2022/05/20 05:20:59;;;;;;;19.60;17.35;;;12.30;99.90;;;;;;4988403;28;20428;-76
2022/05/20 05:23:26;;;;;;;23.67;17.80;;;12.50;99.90;;;;;;4989267;28;20484;-76
2022/05/20 05:25:51;;;;;;;19.08;17.15;;;12.50;99.90;;;;;;4972460;28;20050;-76
2022/05/20 05:28:17;;;;;;;20.13;18.10;;;12.60;99.90;;;;;;4989658;28;20049;-76
2022/05/20 05:30:47;;;;;;;20.08;17.25;;;12.60;99.90;;;;;;4989088;28;20050;-76
2022/05/20 05:33:12;;;;;;;23.65;19.77;;;12.70;99.90;;;;;;4989876;28;20057;-76
2022/05/20 05:35:38;;;;;;;22.85;17.58;;;12.80;99.90;;;;;;4989520;28;20105;-76
2022/05/20 05:38:04;;;;;;;21.73;18.35;;;12.80;99.90;;;;;;4989176;28;20148;-76
2022/05/20 05:40:32;;;;;;;23.08;18.15;;;12.90;99.90;;;;;;4989604;28;20409;-76
2022/05/20 05:42:59;;;;;;;21.33;18.45;;;12.90;99.90;;;;;;4989320;28;20501;-76
2022/05/20 05:45:27;;;;;;;22.77;19.52;;;13.00;99.90;;;;;;4988212;28;20456;-76
2022/05/20 05:47:58;;;;;;;19.75;17.27;;;13.00;99.90;;;;;;4989448;28;20070;-75
2022/05/20 05:50:24;;;;;;;29.98;17.40;;;13.00;99.90;;;;;;4988763;28;20058;-76
2022/05/20 05:53:11;;;;;;;22.77;17.45;;;13.10;99.90;;;;;;4989144;28;20081;-76
2022/05/20 05:55:37;;;;;;;20.38;16.50;;;13.20;99.90;;;;;;4989125;28;20614;-76
2022/05/20 05:58:02;;;;;;;20.33;16.83;;;13.30;99.90;;;;;;4988860;28;20460;-76
2022/05/20 06:00:28;;;;;;;26.58;16.58;;;13.40;99.90;;;;;;4989406;28;20484;-76
2022/05/20 06:02:54;;;;;;;20.23;16.10;;;13.40;99.90;;;;;;4988934;28;20057;-76
2022/05/20 06:05:20;;;;;;;20.58;15.95;;;13.40;99.90;;;;;;4988905;28;20081;-76
2022/05/20 06:07:46;;;;;;;18.38;13.73;;;13.40;99.90;;;;;;4987821;28;20101;-77
2022/05/20 06:10:12;;;;;;;17.10;14.40;;;13.30;99.90;;;;;;4989296;28;20081;-76
2022/05/20 06:12:38;;;;;;;16.05;13.05;;;13.40;99.90;;;;;;4988819;28;20030;-76
2022/05/20 06:15:12;;;;;;;22.95;13.07;;;13.50;99.90;;;;;;4986643;28;20188;-76
2022/05/20 06:17:39;;;;;;;20.67;14.63;;;13.70;99.90;;;;;;4988435;28;20043;-75
2022/05/20 06:20:05;;;;;;;23.67;14.88;;;13.60;99.90;;;;;;4986994;28;20038;-76
2022/05/20 06:22:31;;;;;;;20.33;13.57;;;13.90;99.90;;;;;;4988397;28;20056;-76
2022/05/20 06:24:57;;;;;;;14.07;11.30;;;13.90;99.90;;;;;;4985900;28;20408;-77
2022/05/20 06:27:22;;;;;;;19.90;13.32;;;13.90;99.90;;;;;;4988194;28;20046;-76
2022/05/20 06:29:50;;;;;;;19.98;12.25;;;14.00;99.90;;;;;;4986126;28;20046;-76
2022/05/20 06:32:17;;;;;;;14.52;11.20;;;13.80;99.90;;;;;;4988446;28;20042;-76
2022/05/20 06:40:14;;;;;;;12.50;9.35;;;14.00;99.90;;;;;;4988492;28;20097;-75
2022/05/20 06:42:40;;;;;;;20.40;11.52;;;14.10;99.90;;;;;;4986921;28;20047;-76
2022/05/20 06:45:06;;;;;;;14.60;10.00;;;14.20;99.90;;;;;;4987412;28;20047;-76
2022/05/20 06:47:32;;;;;;;13.45;7.63;;;14.00;99.90;;;;;;4988153;28;20157;-77
2022/05/20 06:49:58;;;;;;;9.40;7.68;;;14.00;99.90;;;;;;4987977;28;20417;-76
2022/05/20 06:52:23;;;;;;;11.82;8.20;;;14.30;99.90;;;;;;4987747;28;20064;-76
2022/05/20 06:54:49;;;;;;;13.43;8.90;;;14.30;99.90;;;;;;4987633;28;20042;-76
2022/05/20 06:57:19;;;;;;;14.68;9.60;;;14.50;99.90;;;;;;4987165;28;20453;-76
2022/05/20 06:59:44;;;;;;;13.80;9.40;;;14.70;99.90;;;;;;4987492;28;20039;-76
2022/05/20 07:02:10;;;;;;;18.67;9.18;;;14.90;99.90;;;;;;4986324;28;20676;-76
2022/05/20 07:04:36;;;;;;;14.65;8.25;;;14.70;99.90;;;;;;4987938;28;20543;-76
2022/05/20 07:07:04;;;;;;;14.75;10.18;;;15.20;99.90;;;;;;4986856;28;20045;-76
2022/05/20 07:09:30;;;;;;;15.85;10.95;;;15.80;99.90;;;;;;4986232;28;20054;-76
2022/05/20 07:11:56;;;;;;;13.40;9.48;;;17.10;99.90;;;;;;4986229;28;20578;-76
2022/05/20 07:14:22;;;;;;;15.70;9.15;;;16.10;99.90;;;;;;4986643;28;20053;-76
2022/05/20 07:16:48;;;;;;;12.45;8.93;;;15.50;99.90;;;;;;4986417;28;20039;-76
2022/05/20 07:19:14;;;;;;;14.65;8.57;;;15.50;99.90;;;;;;4987942;28;20089;-75
2022/05/20 07:21:40;;;;;;;12.05;9.35;;;15.30;99.90;;;;;;4969864;28;20204;-76
2022/05/20 07:24:05;;;;;;;16.35;9.82;;;15.50;99.90;;;;;;4987410;28;20386;-76
2022/05/20 07:26:31;;;;;;;12.40;7.65;;;16.10;99.90;;;;;;4987323;28;20046;-76
2022/05/20 07:28:57;;;;;;;14.98;8.68;;;17.30;99.90;;;;;;4986428;28;20094;-76
2022/05/20 07:31:24;;;;;;;10.43;7.68;;;16.60;99.90;;;;;;4987041;28;20050;-75
2022/05/20 07:33:53;;;;;;;10.45;8.30;;;16.20;99.90;;;;;;4987335;28;20413;-75
2022/05/20 07:36:20;;;;;;;12.27;8.50;;;16.60;99.90;;;;;;4987095;28;20100;-76
2022/05/20 07:38:46;;;;;;;11.23;7.82;;;16.10;99.90;;;;;;4987483;28;20091;-76
2022/05/20 07:41:12;;;;;;;10.73;7.72;;;16.10;99.90;;;;;;4987627;28;20096;-76
2022/05/20 07:43:39;;;;;;;14.73;8.98;;;16.30;99.90;;;;;;4986517;28;20073;-76
2022/05/20 07:46:05;;;;;;;8.50;7.57;;;16.20;99.90;;;;;;4986201;28;20042;-75
2022/05/20 07:48:31;;;;;;;11.32;7.75;;;16.00;99.90;;;;;;4985328;28;20320;-76
2022/05/20 07:51:01;;;;;;;16.77;10.25;;;16.20;99.90;;;;;;4985897;28;20084;-76
2022/05/20 07:53:33;;;;;;;13.18;6.05;;;16.30;99.90;;;;;;4985667;28;20072;-77
2022/05/20 07:56:09;;;;;;;10.00;6.82;;;16.00;99.90;;;;;;4985927;28;20137;-76
2022/05/20 07:58:40;;;;;;;10.57;6.70;;;16.10;99.90;;;;;;4968699;28;20046;-75
2022/05/20 08:01:06;;;;;;;14.60;6.53;;;16.00;99.90;;;;;;4985331;28;20081;-76
2022/05/20 08:06:19;;;;;;;15.73;6.30;;;16.20;99.90;;;;;;4985188;28;20062;-76
2022/05/20 08:08:45;;;;;;;14.63;6.50;;;15.90;99.90;;;;;;4987143;28;20042;-76
2022/05/20 08:11:10;;;;;;;13.68;6.07;;;16.60;99.90;;;;;;4986543;28;20046;-76
2022/05/20 08:13:36;;;;;;;10.85;5.32;;;16.80;99.90;;;;;;4984389;28;20112;-76
2022/05/20 08:16:02;;;;;;;12.30;5.28;;;16.60;99.90;;;;;;4986170;28;20038;-76
2022/05/20 08:18:28;;;;;;;6.65;5.95;;;16.60;99.90;;;;;;4985204;28;20050;-76
2022/05/20 08:20:55;;;;;;;13.35;4.97;;;16.50;99.90;;;;;;4986675;28;20053;-77
2022/05/20 08:23:21;;;;;;;8.00;4.90;;;16.70;99.90;;;;;;4985912;28;20112;-76
2022/05/20 08:25:46;;;;;;;10.15;5.85;;;16.10;99.90;;;;;;4985507;28;20038;-76
2022/05/20 08:28:12;;;;;;;7.90;5.10;;;16.30;99.90;;;;;;4969560;28;20052;-76
2022/05/20 08:30:37;;;;;;;8.73;5.07;;;16.50;99.90;;;;;;4984263;28;20453;-77
2022/05/20 08:33:03;;;;;;;9.90;4.85;;;16.60;99.90;;;;;;5001235;28;20393;-76
2022/05/20 08:35:29;;;;;;;9.15;5.47;;;16.30;99.90;;;;;;4985410;28;20046;-76
2022/05/20 08:37:55;;;;;;;8.18;4.07;;;16.80;99.90;;;;;;4985088;28;20137;-76
2022/05/20 08:40:29;;;;;;;11.68;5.75;;;16.40;99.90;;;;;;4985916;28;20053;-76
2022/05/20 08:42:57;;;;;;;11.00;5.32;;;16.70;99.90;;;;;;4985241;28;20058;-76
2022/05/20 08:45:26;;;;;;;8.38;4.70;;;16.90;99.90;;;;;;4985285;28;20042;-76
2022/05/20 08:47:52;;;;;;;8.32;4.65;;;16.90;99.90;;;;;;4984344;28;20089;-76
2022/05/20 08:50:23;;;;;;;7.80;3.42;;;17.00;99.90;;;;;;4984983;28;20034;-76
2022/05/20 08:52:55;;;;;;;12.85;4.38;;;17.30;99.90;;;;;;4984747;28;20061;-76
2022/05/20 08:55:21;;;;;;;8.88;4.20;;;17.40;99.90;;;;;;4985510;28;20100;-76
2022/05/20 08:58:01;;;;;;;7.93;3.35;;;17.50;99.90;;;;;;4984904;28;20046;-76
2022/05/20 09:00:28;;;;;;;6.35;3.50;;;17.60;99.90;;;;;;4984989;28;20101;-76
2022/05/20 09:02:54;;;;;;;5.22;3.63;;;17.60;99.90;;;;;;4985947;28;20089;-76
2022/05/20 09:05:29;;;;;;;6.57;3.70;;;17.40;99.90;;;;;;4985905;28;20073;-76
2022/05/20 09:08:01;;;;;;;10.30;4.28;;;17.30;99.90;;;;;;4984574;28;20481;-76
2022/05/20 09:10:38;;;;;;;9.15;4.35;;;17.00;99.90;;;;;;4984393;28;20054;-76
2022/05/20 09:13:07;;;;;;;8.65;4.90;;;16.90;99.90;;;;;;4986108;28;20177;-74
2022/05/20 09:15:46;;;;;;;5.03;4.40;;;17.20;99.90;;;;;;4984336;28;20097;-75
2022/05/20 09:18:30;;;;;;;6.15;4.00;;;17.50;99.90;;;;;;4984973;28;20061;-75
2022/05/20 09:20:56;;;;;;;8.07;4.60;;;17.70;99.90;;;;;;4985611;28;20065;-76
2022/05/20 09:23:23;;;;;;;7.28;4.68;;;17.70;99.90;;;;;;4985688;28;20545;-75
2022/05/20 09:26:02;;;;;;;8.75;5.07;;;17.60;99.90;;;;;;4986145;28;20145;-75
2022/05/20 09:28:36;;;;;;;6.53;4.75;;;17.70;99.90;;;;;;4984924;28;20046;-75
2022/05/20 09:31:28;;;;;;;8.73;3.92;;;17.90;99.90;;;;;;4985609;28;20057;-75
2022/05/20 09:34:13;;;;;;;8.02;4.18;;;17.80;99.90;;;;;;4985893;28;20080;-76
2022/05/20 09:37:00;;;;;;;5.80;3.70;;;17.40;99.90;;;;;;4984457;28;20565;-77
2022/05/20 09:39:41;;;;;;;10.32;4.90;;;17.50;99.90;;;;;;4984557;28;20447;-75
2022/05/20 09:42:27;;;;;;;7.20;4.45;;;17.60;99.90;;;;;;4967842;28;20057;-76
2022/05/20 09:44:56;;;;;;;7.07;3.58;;;17.40;99.90;;;;;;4984675;28;20038;-76
2022/05/20 09:47:31;;;;;;;7.80;3.97;;;17.30;99.90;;;;;;4985732;28;20043;-76
2022/05/20 09:50:25;;;;;;;12.73;4.07;;;17.20;99.90;;;;;;4984371;28;20448;-75
2022/05/20 09:52:53;;;;;;;6.53;3.55;;;17.40;99.90;;;;;;4985647;28;20403;-75
2022/05/20 09:55:42;;;;;;;5.55;3.40;;;17.40;99.90;;;;;;4985426;28;20063;-76
2022/05/20 09:58:18;;;;;;;8.25;2.95;;;17.20;99.90;;;;;;4984995;28;20046;-75
2022/05/20 10:00:59;;;;;;;5.95;3.15;;;17.30;99.90;;;;;;4989108;28;20054;-75
2022/05/20 10:03:34;;;;;;;4.95;3.28;;;17.40;99.90;;;;;;4988783;28;20038;-77
2022/05/20 10:06:08;;;;;;;10.63;4.22;;;17.40;99.90;;;;;;4988883;28;20123;-76
2022/05/20 10:09:05;;;;;;;4.57;2.67;;;17.30;99.90;;;;;;4987711;28;20042;-75
2022/05/20 10:11:49;;;;;;;6.78;3.78;;;17.40;99.90;;;;;;4987834;28;20073;-76
2022/05/20 10:14:20;;;;;;;6.68;3.25;;;17.60;99.90;;;;;;4986353;28;20046;-77
2022/05/20 10:16:51;;;;;;;6.47;3.78;;;17.20;99.90;;;;;;4989020;28;20068;-76
2022/05/20 10:19:55;;;;;;;7.57;2.83;;;17.30;99.90;;;;;;4988321;28;20113;-76
2022/05/20 10:22:46;;;;;;;9.15;5.35;;;17.50;99.90;;;;;;4988273;28;20066;-76
2022/05/20 10:25:29;;;;;;;9.43;4.80;;;17.70;99.90;;;;;;4988933;28;20167;-76
2022/05/20 10:28:04;;;;;;;10.50;5.07;;;17.60;99.90;;;;;;4988587;28;20049;-77
2022/05/20 10:33:29;;;;;;;9.77;5.45;;;17.80;99.90;;;;;;5001009;28;20054;-77
2022/05/20 10:35:58;;;;;;;5.32;4.07;;;17.80;99.90;;;;;;4988207;28;20042;-75
2022/05/20 10:38:26;;;;;;;7.22;5.70;;;17.80;99.90;;;;;;4988253;28;20419;-75
2022/05/20 10:40:54;;;;;;;6.18;4.88;;;17.90;99.90;;;;;;4987962;28;20505;-75
2022/05/20 10:50:09;;;;;;;7.10;4.45;;;17.80;99.90;;;;;;4988050;28;20053;-75
2022/05/20 10:52:57;;;;;;;5.00;3.88;;;18.10;99.90;;;;;;4987943;28;20441;-76
2022/05/20 10:55:33;;;;;;;7.43;6.43;;;18.10;99.90;;;;;;4986349;28;20064;-75
2022/05/20 10:58:17;;;;;;;6.70;4.75;;;18.00;99.90;;;;;;5003142;28;20404;-76
2022/05/20 11:00:52;;;;;;;4.78;4.22;;;18.10;99.90;;;;;;4988222;28;20050;-75
2022/05/20 11:03:51;;;;;;;6.15;5.00;;;17.90;99.90;;;;;;4986608;28;20077;-76
2022/05/20 11:06:35;;;;;;;6.13;5.28;;;18.10;99.90;;;;;;4987671;28;20481;-76
2022/05/20 11:09:15;;;;;;;7.00;5.72;;;18.10;99.90;;;;;;4986418;28;20054;-76
2022/05/20 11:11:50;;;;;;;5.82;3.78;;;18.00;99.90;;;;;;4985688;28;20051;-76
2022/05/20 11:14:15;;;;;;;6.50;4.68;;;18.10;99.90;;;;;;4986132;28;20054;-75
2022/05/20 11:16:57;;;;;;;6.13;3.85;;;18.20;99.90;;;;;;4970117;28;20050;-76
2022/05/20 11:19:37;;;;;;;5.63;3.78;;;18.10;99.90;;;;;;4987354;28;20401;-75
2022/05/20 11:22:26;;;;;;;4.38;3.83;;;18.20;99.90;;;;;;4987188;28;20122;-75
2022/05/20 11:25:36;;;;;;;5.88;3.42;;;18.30;99.90;;;;;;4987183;28;20088;-76
2022/05/20 11:28:08;;;;;;;6.95;3.38;;;18.30;99.90;;;;;;4985242;28;20387;-75
2022/05/20 11:30:55;;;;;;;5.47;3.67;;;18.10;99.90;;;;;;4987373;28;20046;-75
2022/05/20 11:33:39;;;;;;;4.93;3.58;;;18.20;99.90;;;;;;4987109;28;20043;-75
2022/05/20 11:36:22;;;;;;;6.60;3.65;;;18.20;99.90;;;;;;4985889;28;20082;-76
2022/05/20 11:39:27;;;;;;;5.45;3.92;;;18.20;99.90;;;;;;4987208;28;20046;-76
2022/05/20 11:42:15;;;;;;;6.50;4.88;;;18.30;99.90;;;;;;4987236;28;20053;-76
2022/05/20 11:44:47;;;;;;;7.78;4.45;;;18.50;99.90;;;;;;4968445;28;20409;-77
2022/05/20 11:47:27;;;;;;;5.80;4.32;;;18.50;99.90;;;;;;4987331;28;20046;-77
2022/05/20 11:50:18;;;;;;;8.80;4.75;;;18.50;99.90;;;;;;4986979;28;20046;-77
2022/05/20 11:53:08;;;;;;;6.50;4.55;;;18.40;99.90;;;;;;4987281;28;20046;-74
2022/05/20 11:55:49;;;;;;;7.75;5.72;;;18.40;99.90;;;;;;4986806;28;20146;-75
2022/05/20 11:58:39;;;;;;;6.47;4.93;;;18.30;99.90;;;;;;4986234;28;20046;-76
2022/05/20 12:01:07;;;;;;;4.35;3.78;;;18.40;99.90;;;;;;4986494;28;20391;-76
2022/05/20 12:04:06;;;;;;;4.85;3.00;;;18.50;99.90;;;;;;4986757;28;20039;-76
2022/05/20 12:06:25;;;;;;;7.18;3.65;;;18.60;99.90;;;;;;4986066;28;20065;-76
2022/05/20 12:08:54;;;;;;;8.43;4.18;;;18.60;99.90;;;;;;4986838;28;20077;-76
2022/05/20 12:11:28;;;;;;;10.90;5.40;;;18.70;99.90;;;;;;4986462;28;20046;-76
2022/05/20 12:14:05;;;;;;;6.55;4.25;;;18.80;99.90;;;;;;4984053;28;20057;-75
2022/05/20 12:16:32;;;;;;;8.02;3.95;;;18.80;99.90;;;;;;4986811;28;20413;-75
2022/05/20 12:24:52;;;;;;;7.00;3.97;;;18.90;99.90;;;;;;4985119;28;20047;-75
2022/05/20 12:27:22;;;;;;;4.30;2.75;;;19.10;99.90;;;;;;4986281;28;20046;-76
2022/05/20 12:30:02;;;;;;;8.02;2.88;;;19.10;99.90;;;;;;4984083;28;20050;-75
2022/05/20 12:32:37;;;;;;;6.28;3.17;;;19.10;99.90;;;;;;4984698;28;20486;-76
2022/05/20 12:35:17;;;;;;;6.97;3.22;;;19.00;99.90;;;;;;4985211;28;20363;-75
2022/05/20 12:37:43;;;;;;;3.00;1.48;;;19.00;99.90;;;;;;4986627;28;20090;-76
2022/05/20 12:40:24;;;;;;;4.70;2.03;;;18.70;99.90;;;;;;4986133;28;20123;-76
2022/05/20 12:42:58;;;;;;;5.97;3.55;;;18.80;99.90;;;;;;4985330;28;20050;-76
2022/05/20 12:45:26;;;;;;;4.07;2.58;;;18.80;99.90;;;;;;4985016;28;20445;-76
2022/05/20 12:47:52;;;;;;;5.82;3.03;;;18.90;99.90;;;;;;4986542;28;20047;-76
2022/05/20 12:50:25;;;;;;;5.07;3.42;;;19.30;99.90;;;;;;4986285;28;20046;-76
2022/05/20 12:52:53;;;;;;;4.93;3.10;;;19.00;99.90;;;;;;4986296;28;20066;-75
2022/05/20 12:55:30;;;;;;;4.65;3.20;;;19.10;99.90;;;;;;4985927;28;20058;-76
2022/05/20 12:58:01;;;;;;;6.40;3.17;;;19.10;99.90;;;;;;4985281;28;20057;-76
2022/05/20 13:00:44;;;;;;;5.13;2.97;;;19.10;99.90;;;;;;4986208;28;20536;-76
2022/05/20 13:03:22;;;;;;;4.35;2.92;;;19.00;99.90;;;;;;4985882;28;20053;-76
2022/05/20 13:06:00;;;;;;;5.78;3.30;;;18.80;99.90;;;;;;4986025;28;20456;-76
2022/05/20 13:08:52;;;;;;;4.47;3.15;;;18.70;99.90;;;;;;4984821;28;20512;-76
2022/05/20 13:11:20;;;;;;;7.10;3.40;;;18.80;99.90;;;;;;4982451;28;20065;-75
2022/05/20 13:13:49;;;;;;;3.85;3.22;;;18.60;99.90;;;;;;4984866;28;20050;-76
2022/05/20 13:16:16;;;;;;;3.13;2.20;;;18.60;99.90;;;;;;4986351;28;20053;-76
2022/05/20 13:18:44;;;;;;;4.35;2.28;;;18.60;99.90;;;;;;4986112;28;20104;-76
2022/05/20 13:21:21;;;;;;;5.18;2.53;;;18.40;99.90;;;;;;4984476;28;20073;-76
2022/05/20 13:23:50;;;;;;;5.47;2.40;;;18.50;99.90;;;;;;4986421;28;20045;-76
2022/05/20 13:26:33;;;;;;;4.10;2.53;;;18.40;99.90;;;;;;4986198;28;20505;-76
2022/05/20 13:29:09;;;;;;;3.85;2.22;;;18.30;99.90;;;;;;4984695;28;20046;-75
2022/05/20 13:31:35;;;;;;;5.63;2.08;;;18.30;99.90;;;;;;4986181;28;20074;-75
2022/05/20 13:34:01;;;;;;;4.35;2.47;;;18.10;99.90;;;;;;4985399;28;20580;-75
2022/05/20 13:36:51;;;;;;;2.75;1.85;;;18.10;99.90;;;;;;4987882;28;20574;-75
2022/05/20 13:39:22;;;;;;;5.85;2.72;;;18.10;99.90;;;;;;4989583;28;20038;-76